createdAt,value
2022-12-25T00:03:09.751Z,101250.59
2022-12-25T00:08:30.793Z,101246.34
2022-12-25T00:13:51.443Z,101257.41
2022-12-25T00:19:11.990Z,101251.47
2022-12-25T00:24:32.331Z,101248.03
2022-12-25T00:29:52.937Z,101242.06
2022-12-25T00:35:14.194Z,101245.47
2022-12-25T00:40:35.004Z,101239.47
2022-12-25T00:45:57.923Z,101246.28
2022-12-25T00:51:18.578Z,101253.94
2022-12-25T00:56:40.004Z,101264.13
2022-12-25T01:02:21.361Z,101256.50
2022-12-25T01:07:42.306Z,101261.59
2022-12-25T01:13:02.960Z,101273.47
2022-12-25T01:18:24.848Z,101280.28
2022-12-25T01:23:45.684Z,101280.25
2022-12-25T01:29:06.088Z,101296.34
2022-12-25T01:34:26.829Z,101289.56
2022-12-25T01:39:47.600Z,101280.22
2022-12-25T01:45:26.258Z,101286.97
2022-12-25T01:50:55.566Z,101286.94
2022-12-25T01:56:16.377Z,101290.31
2022-12-25T02:01:37.249Z,101296.25
2022-12-25T02:06:58.237Z,101298.78
2022-12-25T02:12:28.179Z,101307.22
2022-12-25T02:18:07.047Z,101303.75
2022-12-25T02:23:33.145Z,101321.66
2022-12-25T02:29:02.825Z,101318.97
2022-12-25T02:34:44.307Z,101329.97
2022-12-25T02:40:17.353Z,101329.09
2022-12-25T02:46:04.900Z,101317.25
2022-12-25T02:51:47.727Z,101313.81
2022-12-25T02:57:29.810Z,101295.09
2022-12-25T03:03:11.693Z,101276.50
2022-12-25T03:08:40.030Z,101262.09
2022-12-25T03:14:26.151Z,101261.28
2022-12-25T03:20:05.486Z,101262.19
2022-12-25T03:25:44.854Z,101262.16
2022-12-25T03:31:27.912Z,101234.84
2022-12-25T03:37:28.366Z,101239.81
2022-12-25T03:43:15.284Z,101243.16
2022-12-25T03:48:58.351Z,101249.03
2022-12-25T03:54:41.629Z,101254.88
2022-12-25T04:00:20.642Z,101242.06
2022-12-25T04:06:00.948Z,101243.69
2022-12-25T04:11:39.873Z,101223.25
2022-12-25T04:17:18.883Z,101211.28
2022-12-25T04:22:57.962Z,101214.66
2022-12-25T04:28:37.228Z,101199.44
2022-12-25T04:34:16.767Z,101201.22
2022-12-25T04:39:38.455Z,101210.56
2022-12-25T04:45:00.540Z,101199.59
2022-12-25T04:50:21.135Z,101219.91
2022-12-25T04:55:42.202Z,101217.28
2022-12-25T05:01:04.331Z,101209.66
2022-12-25T05:06:26.319Z,101207.94
2022-12-25T05:11:46.988Z,101197.72
2022-12-25T05:17:08.075Z,101196.88
2022-12-25T05:22:28.709Z,101188.25
2022-12-25T05:27:53.836Z,101169.50
2022-12-25T05:33:15.040Z,101177.06
2022-12-25T05:38:36.163Z,101161.81
2022-12-25T05:43:56.737Z,101165.13
2022-12-25T05:49:17.620Z,101171.03
2022-12-25T05:54:38.606Z,101161.72
2022-12-25T05:59:59.682Z,101170.22
2022-12-25T06:05:22.275Z,101175.25
2022-12-25T06:10:43.123Z,101160.84
2022-12-25T06:16:09.210Z,101159.13
2022-12-25T06:21:29.907Z,101169.31
2022-12-25T06:26:50.525Z,101168.47
2022-12-25T06:32:11.103Z,101151.50
2022-12-25T06:37:31.958Z,101163.34
2022-12-25T06:42:52.725Z,101167.63
2022-12-25T06:48:13.110Z,101175.47
2022-12-25T06:53:40.439Z,101182.28
2022-12-25T06:59:09.528Z,101172.97
2022-12-25T07:04:38.305Z,101163.66
2022-12-25T07:09:58.622Z,101158.59
2022-12-25T07:15:19.063Z,101184.84
2022-12-25T07:20:39.913Z,101176.34
2022-12-25T07:26:01.573Z,101156.00
2022-12-25T07:31:22.056Z,101161.13
2022-12-25T07:36:44.928Z,101150.09
2022-12-25T07:42:05.206Z,101158.63
2022-12-25T07:47:25.569Z,101164.63
2022-12-25T07:52:46.994Z,101175.72
2022-12-25T07:58:07.804Z,101185.09
2022-12-25T08:03:28.633Z,101182.59
2022-12-25T08:08:49.344Z,101178.41
2022-12-25T08:14:10.105Z,101197.13
2022-12-25T08:19:30.572Z,101181.03
2022-12-25T08:24:51.432Z,101203.13
2022-12-25T08:30:12.210Z,101186.19
2022-12-25T08:35:36.197Z,101175.16
2022-12-25T08:40:57.071Z,101177.81
2022-12-25T08:46:17.892Z,101192.31
2022-12-25T08:51:39.037Z,101189.78
2022-12-25T08:57:02.881Z,101182.13
2022-12-25T09:02:24.585Z,101183.00
2022-12-25T09:07:45.302Z,101190.63
2022-12-25T09:13:05.691Z,101191.44
2022-12-25T09:18:27.956Z,101200.81
2022-12-25T09:23:48.785Z,101194.06
2022-12-25T09:29:09.264Z,101192.47
2022-12-25T09:34:30.917Z,101184.00
2022-12-25T09:39:51.462Z,101183.28
2022-12-25T09:45:30.036Z,101183.22
2022-12-25T09:50:54.845Z,101180.56
2022-12-25T09:56:25.816Z,101176.31
2022-12-25T10:02:25.269Z,101165.28
2022-12-25T10:08:21.657Z,101168.69
2022-12-25T10:14:07.976Z,101172.00
2022-12-25T10:19:46.617Z,101154.91
2022-12-25T10:25:16.640Z,101154.06
2022-12-25T10:30:40.956Z,101157.47
2022-12-25T10:36:01.858Z,101148.09
2022-12-25T10:41:41.815Z,101154.81
2022-12-25T10:47:04.525Z,101153.97
2022-12-25T10:52:27.421Z,101160.78
2022-12-25T10:57:47.946Z,101164.28
2022-12-25T11:03:28.412Z,101158.38
2022-12-25T11:08:58.325Z,101154.16
2022-12-25T11:14:21.088Z,101145.75
2022-12-25T11:19:52.783Z,101126.25
2022-12-25T11:25:15.079Z,101110.16
2022-12-25T11:30:37.441Z,101101.66
2022-12-25T11:36:02.924Z,101099.13
2022-12-25T11:41:31.792Z,101108.47
2022-12-25T11:46:55.988Z,101111.00
2022-12-25T11:52:18.476Z,101131.31
2022-12-25T11:57:41.183Z,101121.09
2022-12-25T12:03:06.976Z,101116.00
2022-12-25T12:08:28.697Z,101109.22
2022-12-25T12:14:12.165Z,101088.03
2022-12-25T12:19:34.747Z,101091.44
2022-12-25T12:25:01.460Z,101101.66
2022-12-25T12:30:32.945Z,101094.00
2022-12-25T12:35:53.837Z,101096.53
2022-12-25T12:41:16.332Z,101088.06
2022-12-25T12:46:37.415Z,101079.53
2022-12-25T12:52:24.752Z,101082.88
2022-12-25T12:57:45.351Z,101091.34
2022-12-25T13:03:23.993Z,101070.13
2022-12-25T13:09:15.326Z,101059.97
2022-12-25T13:14:37.940Z,101052.38
2022-12-25T13:20:00.988Z,101059.16
2022-12-25T13:25:22.810Z,101057.50
2022-12-25T13:30:43.540Z,101056.66
2022-12-25T13:36:05.934Z,101049.91
2022-12-25T13:42:05.411Z,101028.72
2022-12-25T13:47:34.885Z,101032.94
2022-12-25T13:52:57.453Z,101038.88
2022-12-25T13:58:33.289Z,101016.81
2022-12-25T14:03:54.204Z,101021.91
2022-12-25T14:09:16.473Z,101022.78
2022-12-25T14:14:37.391Z,101022.81
2022-12-25T14:20:06.005Z,101002.44
2022-12-25T14:25:35.613Z,100987.13
2022-12-25T14:30:56.265Z,100998.16
2022-12-25T14:36:16.930Z,100989.63
2022-12-25T14:41:42.038Z,100976.88
2022-12-25T14:47:23.729Z,100966.72
2022-12-25T14:52:45.260Z,100965.00
2022-12-25T14:58:08.028Z,100944.63
2022-12-25T15:03:38.371Z,100946.31
2022-12-25T15:09:04.564Z,100947.16
2022-12-25T15:14:26.430Z,100946.34
2022-12-25T15:19:46.733Z,100944.63
2022-12-25T15:25:14.290Z,100945.50
2022-12-25T15:30:39.160Z,100953.16
2022-12-25T15:35:59.585Z,100954.00
2022-12-25T15:41:43.008Z,100954.03
2022-12-25T15:47:04.147Z,100958.31
2022-12-25T15:52:24.728Z,100959.16
2022-12-25T15:57:47.477Z,100959.13
2022-12-25T16:03:08.005Z,100965.94
2022-12-25T16:08:28.864Z,100971.03
2022-12-25T16:13:49.094Z,100964.22
2022-12-25T16:19:09.403Z,100955.75
2022-12-25T16:24:29.738Z,100953.22
2022-12-25T16:29:50.088Z,100954.91
2022-12-25T16:35:11.615Z,100962.56
2022-12-25T16:40:32.099Z,100963.41
2022-12-25T16:45:52.611Z,100965.97
2022-12-25T16:51:19.025Z,100952.34
2022-12-25T16:56:39.382Z,100953.22
2022-12-25T17:02:00.164Z,100958.28
2022-12-25T17:07:21.164Z,100962.56
2022-12-25T17:12:42.418Z,100954.09
2022-12-25T17:18:02.789Z,100953.19
2022-12-25T17:23:23.061Z,100942.19
2022-12-25T17:28:45.308Z,100944.72
2022-12-25T17:34:06.111Z,100930.28
2022-12-25T17:39:26.692Z,100926.03
2022-12-25T17:44:47.277Z,100914.16
2022-12-25T17:50:08.260Z,100909.06
2022-12-25T17:55:34.082Z,100895.50
2022-12-25T18:00:54.672Z,100900.59
2022-12-25T18:06:17.770Z,100908.22
2022-12-25T18:11:40.466Z,100896.31
2022-12-25T18:17:00.666Z,100890.38
2022-12-25T18:22:22.097Z,100892.06
2022-12-25T18:27:42.924Z,100873.41
2022-12-25T18:33:03.206Z,100868.31
2022-12-25T18:38:23.493Z,100871.69
2022-12-25T18:43:53.769Z,100860.66
2022-12-25T18:49:16.078Z,100859.00
2022-12-25T18:54:36.490Z,100857.28
2022-12-25T18:59:57.051Z,100856.44
2022-12-25T19:05:17.590Z,100850.47
2022-12-25T19:10:39.575Z,100848.78
2022-12-25T19:15:59.994Z,100849.63
2022-12-25T19:21:20.183Z,100845.38
2022-12-25T19:26:40.472Z,100846.22
2022-12-25T19:32:01.030Z,100834.34
2022-12-25T19:37:21.611Z,100840.28
2022-12-25T19:42:42.011Z,100826.69
2022-12-25T19:48:02.351Z,100830.09
2022-12-25T19:53:24.125Z,100813.97
2022-12-25T19:58:45.298Z,100808.00
2022-12-25T20:04:08.681Z,100798.69
2022-12-25T20:09:30.491Z,100793.63
2022-12-25T20:14:51.173Z,100785.09
2022-12-25T20:20:11.823Z,100795.28
2022-12-25T20:25:32.422Z,100792.75
2022-12-25T20:30:52.695Z,100792.75
2022-12-25T20:36:14.877Z,100791.91
2022-12-25T20:41:35.661Z,100789.38
2022-12-25T20:46:59.367Z,100784.25
2022-12-25T20:52:20.040Z,100796.16
2022-12-25T20:57:40.520Z,100797.03
2022-12-25T21:03:01.273Z,100777.47
2022-12-25T21:08:24.687Z,100792.78
2022-12-25T21:13:46.261Z,100784.28
2022-12-25T21:19:06.743Z,100778.34
2022-12-25T21:24:27.160Z,100786.88
2022-12-25T21:29:47.534Z,100791.09
2022-12-25T21:35:08.502Z,100791.09
2022-12-25T21:40:29.238Z,100783.44
2022-12-25T21:45:49.845Z,100792.78
2022-12-25T21:51:35.124Z,100783.47
2022-12-25T21:56:55.565Z,100766.47
2022-12-25T22:02:16.336Z,100758.84
2022-12-25T22:07:37.036Z,100764.78
2022-12-25T22:13:16.681Z,100764.78
2022-12-25T22:18:55.983Z,100761.38
2022-12-25T22:24:16.323Z,100754.59
2022-12-25T22:29:37.348Z,100758.88
2022-12-25T22:34:58.252Z,100766.50
2022-12-25T22:40:20.135Z,100758.88
2022-12-25T22:45:40.659Z,100763.09
2022-12-25T22:51:03.255Z,100752.94
2022-12-25T22:56:23.910Z,100734.22
2022-12-25T23:01:45.115Z,100732.56
2022-12-25T23:07:06.028Z,100730.00
2022-12-25T23:12:45.288Z,100735.97
2022-12-25T23:18:24.552Z,100740.19
2022-12-25T23:24:03.912Z,100750.38
2022-12-25T23:29:36.300Z,100747.84
2022-12-25T23:34:57.068Z,100741.06
2022-12-25T23:40:17.685Z,100734.28
2022-12-25T23:45:39.808Z,100736.84
2022-12-25T23:51:06.128Z,100740.22
2022-12-25T23:56:26.701Z,100721.56
